Time;durP1;ratioP1;P1;durP2;ratioP2;P2;SDS_P1;SDS_P2;PMS_P1;PMS_P2;Temp;Humidity;BMP_temperature;BMP_pressure;BME280_temperature;BME280_humidity;BME280_pressure;Samples;Min_cycle;Max_cycle;Signal;HPM_P1;HPM_P2
2023/08/29 00:00:39;;;;;;;5.75;3.92;;;17.10;90.50;;;;;;5118840;28;20031;-81
2023/08/29 00:03:05;;;;;;;7.30;4.55;;;17.10;90.50;;;;;;5101873;28;20037;-81
2023/08/29 00:05:31;;;;;;;6.90;4.47;;;17.10;90.60;;;;;;5101995;28;20051;-81
2023/08/29 00:07:57;;;;;;;5.30;4.07;;;17.10;90.60;;;;;;5118780;28;20027;-81
2023/08/29 00:10:22;;;;;;;6.75;4.35;;;17.10;90.50;;;;;;5136765;28;20027;-81
2023/08/29 00:12:48;;;;;;;6.13;3.95;;;17.10;90.60;;;;;;5101777;28;20028;-81
2023/08/29 00:15:14;;;;;;;8.57;4.50;;;17.10;90.70;;;;;;5136614;28;20024;-81
2023/08/29 00:17:39;;;;;;;5.88;3.92;;;17.00;90.80;;;;;;5118563;28;20076;-81
2023/08/29 00:20:06;;;;;;;6.90;4.53;;;17.00;90.90;;;;;;5101467;28;20131;-81
2023/08/29 00:22:32;;;;;;;6.15;4.25;;;17.00;90.90;;;;;;5101739;28;20023;-81
2023/08/29 00:24:58;;;;;;;6.20;4.65;;;17.00;91.00;;;;;;5118508;28;20037;-82
2023/08/29 00:27:24;;;;;;;5.57;4.10;;;17.00;91.00;;;;;;5136416;28;20015;-81
2023/08/29 00:29:50;;;;;;;4.60;4.03;;;17.00;90.90;;;;;;5118398;28;20034;-81
2023/08/29 00:32:15;;;;;;;6.13;3.97;;;17.00;90.70;;;;;;5136199;28;20047;-82
2023/08/29 00:34:41;;;;;;;6.15;3.92;;;17.00;90.70;;;;;;5118325;28;20024;-81
2023/08/29 00:37:07;;;;;;;6.47;4.03;;;17.00;90.60;;;;;;5118135;28;20035;-81
2023/08/29 00:39:33;;;;;;;5.72;4.25;;;16.90;90.60;;;;;;5101301;28;20042;-82
2023/08/29 00:41:59;;;;;;;5.68;3.75;;;16.80;90.60;;;;;;5101200;28;20019;-81
2023/08/29 00:44:24;;;;;;;5.97;3.67;;;16.80;90.60;;;;;;5100930;28;20048;-81
2023/08/29 00:46:51;;;;;;;6.47;3.78;;;16.90;90.50;;;;;;5118110;28;20038;-81
2023/08/29 00:49:20;;;;;;;7.50;3.95;;;16.80;90.40;;;;;;5118037;28;20055;-80
2023/08/29 00:51:46;;;;;;;5.25;3.72;;;16.80;90.30;;;;;;5117880;28;20055;-81
2023/08/29 00:54:15;;;;;;;6.22;3.70;;;16.80;90.30;;;;;;5135955;28;20039;-82
2023/08/29 00:56:42;;;;;;;6.28;4.30;;;16.80;90.30;;;;;;5134824;28;20385;-81
2023/08/29 00:59:08;;;;;;;5.38;3.65;;;16.70;90.30;;;;;;5135782;28;20101;-81
2023/08/29 01:01:35;;;;;;;6.10;3.97;;;16.70;90.50;;;;;;5100732;28;20032;-81
2023/08/29 01:04:02;;;;;;;5.18;3.67;;;16.60;90.50;;;;;;5117738;28;20012;-82
2023/08/29 01:06:30;;;;;;;6.00;4.10;;;16.60;90.60;;;;;;5135612;28;20020;-82
2023/08/29 01:08:57;;;;;;;6.47;4.10;;;16.60;90.60;;;;;;5117533;28;20087;-82
2023/08/29 01:11:37;;;;;;;5.32;3.78;;;16.60;90.60;;;;;;5135615;28;20024;-81
2023/08/29 01:14:34;;;;;;;5.55;3.85;;;16.60;90.60;;;;;;5117526;28;20008;-82
2023/08/29 01:17:24;;;;;;;5.75;3.53;;;16.60;90.50;;;;;;5135449;28;20030;-81
2023/08/29 01:19:52;;;;;;;5.93;3.75;;;16.60;90.50;;;;;;5116638;28;20108;-81
2023/08/29 01:22:44;;;;;;;4.60;3.65;;;16.50;90.50;;;;;;5135301;28;20027;-82
2023/08/29 01:25:30;;;;;;;6.00;3.80;;;16.50;90.50;;;;;;5135334;28;20083;-81
2023/08/29 01:27:56;;;;;;;7.05;3.72;;;16.50;90.50;;;;;;5117187;28;20800;-82
2023/08/29 01:30:23;;;;;;;4.53;3.45;;;16.40;90.70;;;;;;5117141;28;20090;-81
2023/08/29 01:32:50;;;;;;;5.55;3.40;;;16.40;90.70;;;;;;5117176;28;20032;-81
2023/08/29 01:35:15;;;;;;;7.00;3.53;;;16.40;90.70;;;;;;5083422;28;20038;-82
2023/08/29 01:37:41;;;;;;;5.82;3.65;;;16.40;90.80;;;;;;5100064;28;20023;-81
2023/08/29 01:40:07;;;;;;;7.20;4.10;;;16.40;90.90;;;;;;5116807;28;20028;-82
2023/08/29 01:42:33;;;;;;;8.23;3.97;;;16.40;90.90;;;;;;5100136;28;20028;-82
2023/08/29 01:44:59;;;;;;;7.30;3.58;;;16.40;90.90;;;;;;5134611;28;20027;-81
2023/08/29 01:47:24;;;;;;;5.97;3.45;;;16.40;90.90;;;;;;5116921;28;20117;-82
2023/08/29 01:49:51;;;;;;;5.50;3.70;;;16.40;90.80;;;;;;5116897;28;20474;-81
2023/08/29 01:52:17;;;;;;;7.88;3.88;;;16.30;90.70;;;;;;5116383;28;20028;-82
2023/08/29 01:54:43;;;;;;;5.53;3.50;;;16.30;90.80;;;;;;5099866;28;20042;-82
2023/08/29 01:57:13;;;;;;;6.68;3.63;;;16.30;90.80;;;;;;5134761;28;20024;-81
2023/08/29 01:59:39;;;;;;;5.45;3.55;;;16.30;90.80;;;;;;5116809;28;20043;-81
2023/08/29 02:02:05;;;;;;;4.60;3.38;;;16.20;90.70;;;;;;5099511;28;20028;-82
2023/08/29 02:04:31;;;;;;;5.45;3.80;;;16.30;90.70;;;;;;5116510;28;20045;-81
2023/08/29 02:06:56;;;;;;;4.70;3.53;;;16.20;90.60;;;;;;5099634;28;20031;-81
2023/08/29 02:09:22;;;;;;;4.85;3.53;;;16.20;90.60;;;;;;5116325;28;20042;-82
2023/08/29 02:11:50;;;;;;;6.43;3.55;;;16.20;90.60;;;;;;5082923;28;20098;-82
2023/08/29 02:14:15;;;;;;;7.38;3.53;;;16.20;90.60;;;;;;5099610;28;20023;-81
2023/08/29 02:16:41;;;;;;;7.05;4.30;;;16.20;90.70;;;;;;5099671;28;20088;-81
2023/08/29 02:19:06;;;;;;;6.25;3.75;;;16.20;90.60;;;;;;5116405;28;20023;-81
2023/08/29 02:21:32;;;;;;;6.55;3.95;;;16.20;90.50;;;;;;5099511;28;20035;-82
2023/08/29 02:23:59;;;;;;;6.65;3.40;;;16.20;90.80;;;;;;5099371;28;20024;-81
2023/08/29 02:26:24;;;;;;;7.13;4.07;;;16.20;90.40;;;;;;5082795;28;20031;-82
2023/08/29 02:28:55;;;;;;;7.22;3.50;;;16.10;90.30;;;;;;5099557;28;20021;-82
2023/08/29 02:31:22;;;;;;;6.13;3.25;;;16.10;90.40;;;;;;5134339;28;20049;-81
2023/08/29 02:33:48;;;;;;;5.60;3.22;;;16.00;90.40;;;;;;5116094;28;20028;-81
2023/08/29 02:36:13;;;;;;;4.57;2.92;;;16.10;90.50;;;;;;5134041;28;20034;-81
2023/08/29 02:38:39;;;;;;;7.35;4.10;;;16.00;90.40;;;;;;5099235;28;20028;-82
2023/08/29 02:41:09;;;;;;;6.40;3.63;;;16.00;90.50;;;;;;5099287;28;20066;-81
2023/08/29 02:43:35;;;;;;;5.68;3.55;;;15.90;90.60;;;;;;5082950;28;20024;-82
2023/08/29 02:46:00;;;;;;;5.95;3.60;;;15.90;90.70;;;;;;5099087;28;20107;-82
2023/08/29 02:48:27;;;;;;;4.97;3.28;;;15.90;91.00;;;;;;5099227;28;20028;-82
2023/08/29 02:50:53;;;;;;;5.20;3.53;;;15.80;91.10;;;;;;5116058;28;20024;-82
2023/08/29 02:53:20;;;;;;;5.38;3.55;;;15.90;91.10;;;;;;5099251;28;20069;-81
2023/08/29 02:55:49;;;;;;;5.70;3.50;;;15.80;91.10;;;;;;5099185;28;20077;-82
2023/08/29 02:58:15;;;;;;;6.20;3.85;;;15.80;91.20;;;;;;5099427;28;20057;-81
2023/08/29 03:00:41;;;;;;;4.95;3.13;;;15.90;91.30;;;;;;5133933;28;20027;-81
2023/08/29 03:03:07;;;;;;;5.38;3.15;;;15.90;91.20;;;;;;5082567;28;20035;-81
2023/08/29 03:05:33;;;;;;;5.85;3.45;;;15.90;91.10;;;;;;5082424;28;20087;-81
2023/08/29 03:08:02;;;;;;;8.63;3.50;;;15.90;91.10;;;;;;5115920;28;20024;-81
2023/08/29 03:10:28;;;;;;;4.68;3.45;;;15.90;91.00;;;;;;5134075;28;20016;-82
2023/08/29 03:12:54;;;;;;;5.57;3.38;;;15.90;91.00;;;;;;5082265;28;20054;-82
2023/08/29 03:15:19;;;;;;;5.05;3.35;;;15.90;91.00;;;;;;5098929;28;20083;-82
2023/08/29 03:17:45;;;;;;;5.78;3.78;;;15.90;91.00;;;;;;5098853;28;20081;-81
2023/08/29 03:20:11;;;;;;;4.57;3.28;;;15.90;91.00;;;;;;5100196;28;20087;-81
2023/08/29 03:22:38;;;;;;;6.18;3.35;;;15.80;90.90;;;;;;5137463;28;20027;-82
2023/08/29 03:25:05;;;;;;;6.20;3.13;;;15.80;91.00;;;;;;5119634;28;20024;-81
2023/08/29 03:27:30;;;;;;;5.18;3.40;;;15.80;91.00;;;;;;5137647;28;20015;-81
2023/08/29 03:29:57;;;;;;;5.50;3.35;;;15.80;91.00;;;;;;5119599;28;20022;-82
2023/08/29 03:32:23;;;;;;;5.88;3.40;;;15.80;91.00;;;;;;5086142;28;20030;-82
2023/08/29 03:34:54;;;;;;;6.57;3.60;;;15.90;91.00;;;;;;5119362;28;20055;-81
2023/08/29 03:37:19;;;;;;;7.20;3.78;;;15.90;91.00;;;;;;5119354;28;20542;-82
2023/08/29 03:39:45;;;;;;;5.65;3.40;;;15.90;91.00;;;;;;5119400;28;20031;-82
2023/08/29 03:42:10;;;;;;;5.35;3.83;;;15.90;91.00;;;;;;5119450;28;20039;-81
2023/08/29 03:44:36;;;;;;;9.07;3.90;;;15.90;91.00;;;;;;5102233;28;20028;-81
2023/08/29 03:47:03;;;;;;;6.25;3.88;;;15.90;91.10;;;;;;5119042;28;20047;-81
2023/08/29 03:49:29;;;;;;;6.53;3.45;;;15.80;91.30;;;;;;5119322;28;20087;-82
2023/08/29 03:51:55;;;;;;;5.38;3.83;;;15.80;91.40;;;;;;5119284;28;20031;-82
2023/08/29 03:54:21;;;;;;;5.10;3.72;;;15.80;91.40;;;;;;5119064;28;20426;-81
2023/08/29 03:56:48;;;;;;;6.05;3.60;;;15.90;91.60;;;;;;5102106;28;20047;-82
2023/08/29 03:59:13;;;;;;;7.38;3.72;;;15.90;91.60;;;;;;5085703;28;20053;-82
2023/08/29 04:01:39;;;;;;;5.88;3.60;;;15.90;91.60;;;;;;5101962;28;20011;-82
2023/08/29 04:04:05;;;;;;;6.63;3.70;;;15.90;91.60;;;;;;5118882;28;20032;-82
2023/08/29 04:06:34;;;;;;;6.05;3.53;;;15.90;91.50;;;;;;5085154;28;20019;-82
2023/08/29 04:08:59;;;;;;;6.07;3.60;;;15.90;91.40;;;;;;5102092;28;20026;-82
2023/08/29 04:11:25;;;;;;;5.05;3.75;;;15.80;91.40;;;;;;5118843;28;20024;-82
2023/08/29 04:13:51;;;;;;;5.50;3.72;;;15.80;91.50;;;;;;5101886;28;20570;-82
2023/08/29 04:16:17;;;;;;;5.70;3.60;;;15.80;91.60;;;;;;5136741;28;20047;-81
2023/08/29 04:18:43;;;;;;;7.32;3.75;;;15.80;91.60;;;;;;5118691;28;20028;-81
2023/08/29 04:21:08;;;;;;;5.07;3.35;;;15.80;91.60;;;;;;5101804;28;20027;-82
2023/08/29 04:23:34;;;;;;;6.38;3.20;;;15.70;91.60;;;;;;5118620;28;20024;-81
2023/08/29 04:26:01;;;;;;;5.55;3.72;;;15.70;91.60;;;;;;5084804;28;20034;-81
2023/08/29 04:28:27;;;;;;;5.30;3.25;;;15.70;91.60;;;;;;5118388;28;20019;-81
2023/08/29 04:30:54;;;;;;;5.05;3.42;;;15.80;91.50;;;;;;5118414;28;20028;-81
2023/08/29 04:33:19;;;;;;;5.60;3.85;;;15.80;91.50;;;;;;5084970;28;20054;-81
2023/08/29 04:35:48;;;;;;;5.60;3.90;;;15.80;91.50;;;;;;5118210;28;20023;-81
2023/08/29 04:38:14;;;;;;;5.75;3.50;;;15.80;91.60;;;;;;5118271;28;20091;-82
2023/08/29 04:40:40;;;;;;;5.55;3.47;;;15.80;91.50;;;;;;5101162;28;20032;-82
2023/08/29 04:43:05;;;;;;;8.40;4.30;;;15.80;91.50;;;;;;5101442;28;20031;-82
2023/08/29 04:45:32;;;;;;;5.20;3.38;;;15.70;91.40;;;;;;5114620;28;20074;-82
2023/08/29 04:47:58;;;;;;;5.90;3.33;;;15.70;91.40;;;;;;5114612;28;20074;-82
2023/08/29 04:50:25;;;;;;;7.68;3.92;;;15.70;91.40;;;;;;5097935;28;20028;-82
2023/08/29 04:52:53;;;;;;;7.00;4.20;;;15.70;91.40;;;;;;5114501;28;20079;-82
2023/08/29 04:55:19;;;;;;;8.23;4.18;;;15.60;91.40;;;;;;5097724;28;20024;-82
2023/08/29 04:57:45;;;;;;;5.35;3.88;;;15.60;91.60;;;;;;5114357;28;20046;-81
2023/08/29 05:00:12;;;;;;;5.82;3.70;;;15.60;91.60;;;;;;5080653;28;20039;-81
2023/08/29 05:02:39;;;;;;;6.70;3.83;;;15.70;91.70;;;;;;5097602;28;20028;-81
2023/08/29 05:05:06;;;;;;;6.45;3.63;;;15.60;91.70;;;;;;5080736;28;20054;-81
2023/08/29 05:07:31;;;;;;;7.65;3.70;;;15.70;91.70;;;;;;5115373;28;20014;-82
2023/08/29 05:09:57;;;;;;;5.53;3.53;;;15.60;91.60;;;;;;5114169;28;20016;-81
2023/08/29 05:12:23;;;;;;;6.20;3.60;;;15.60;91.70;;;;;;5097196;28;20043;-82
2023/08/29 05:14:48;;;;;;;5.53;3.63;;;15.50;91.80;;;;;;5097215;28;20028;-81
2023/08/29 05:17:14;;;;;;;5.93;3.88;;;15.60;91.70;;;;;;5097275;28;20036;-81
2023/08/29 05:19:40;;;;;;;7.88;4.15;;;15.50;91.60;;;;;;5097092;28;20024;-81
2023/08/29 05:22:06;;;;;;;7.03;3.97;;;15.50;91.60;;;;;;5114021;28;20020;-81
2023/08/29 05:24:32;;;;;;;7.07;3.65;;;15.50;91.60;;;;;;5114831;28;20028;-81
2023/08/29 05:26:58;;;;;;;5.82;3.67;;;15.50;91.70;;;;;;5097124;28;20053;-81
2023/08/29 05:29:23;;;;;;;6.53;4.03;;;15.50;91.70;;;;;;5096909;28;20118;-81
2023/08/29 05:31:49;;;;;;;4.25;2.92;;;15.50;91.70;;;;;;5113667;28;20024;-81
2023/08/29 05:34:15;;;;;;;5.35;3.25;;;15.50;91.60;;;;;;5113562;28;20110;-81
2023/08/29 05:36:40;;;;;;;7.43;3.67;;;15.40;91.50;;;;;;5096498;28;20035;-81
2023/08/29 05:39:06;;;;;;;7.68;3.75;;;15.30;91.70;;;;;;5080009;28;20032;-81
2023/08/29 05:41:32;;;;;;;5.30;3.40;;;15.30;92.00;;;;;;5113640;28;20032;-81
2023/08/29 05:43:57;;;;;;;6.90;3.92;;;15.20;92.30;;;;;;5096109;28;20030;-81
2023/08/29 05:46:23;;;;;;;6.43;3.40;;;15.10;92.50;;;;;;5096301;28;20082;-81
2023/08/29 05:48:48;;;;;;;6.72;4.30;;;15.20;92.60;;;;;;5113445;28;20045;-81
2023/08/29 05:51:14;;;;;;;7.38;3.78;;;15.20;92.60;;;;;;5113526;28;20024;-81
2023/08/29 05:53:39;;;;;;;5.93;3.67;;;15.30;92.50;;;;;;5096411;28;20395;-80
2023/08/29 05:56:05;;;;;;;5.35;3.45;;;15.40;92.50;;;;;;5113299;28;20036;-80
2023/08/29 05:58:31;;;;;;;5.47;3.40;;;15.40;92.50;;;;;;5114160;28;20486;-81
2023/08/29 06:00:56;;;;;;;5.47;3.22;;;15.30;92.50;;;;;;5079635;28;20088;-81
2023/08/29 06:03:22;;;;;;;5.68;3.67;;;15.30;92.60;;;;;;5096291;28;20545;-81
2023/08/29 06:05:51;;;;;;;5.18;3.58;;;15.30;92.60;;;;;;5113277;28;20096;-80
2023/08/29 06:08:17;;;;;;;6.30;3.83;;;15.40;92.60;;;;;;5113084;28;20382;-81
2023/08/29 06:10:43;;;;;;;6.30;4.30;;;15.40;92.50;;;;;;5113183;28;20478;-81
2023/08/29 06:13:09;;;;;;;6.82;3.80;;;15.50;92.40;;;;;;5079462;28;20019;-81
2023/08/29 06:15:35;;;;;;;7.20;3.75;;;15.50;92.40;;;;;;5096213;28;20032;-80
2023/08/29 06:18:00;;;;;;;6.80;4.13;;;15.50;92.40;;;;;;5113866;28;20028;-81
2023/08/29 06:20:27;;;;;;;6.55;4.30;;;15.50;92.40;;;;;;5112768;28;20036;-81
2023/08/29 06:22:56;;;;;;;7.07;3.83;;;15.50;92.40;;;;;;5079694;28;20042;-81
2023/08/29 06:25:22;;;;;;;7.03;4.15;;;15.60;92.50;;;;;;5112973;28;20032;-81
2023/08/29 06:27:47;;;;;;;5.65;3.58;;;15.60;92.50;;;;;;5113072;28;20020;-81
2023/08/29 06:30:14;;;;;;;10.93;4.72;;;15.60;92.60;;;;;;5079152;28;20028;-81
2023/08/29 06:32:40;;;;;;;7.05;4.20;;;15.60;92.60;;;;;;5112851;28;20024;-81
2023/08/29 06:35:07;;;;;;;6.88;4.30;;;15.70;92.80;;;;;;5112563;28;20057;-80
2023/08/29 06:37:33;;;;;;;8.93;4.68;;;15.70;92.90;;;;;;5096191;28;20549;-80
2023/08/29 06:39:59;;;;;;;8.27;4.93;;;15.70;93.00;;;;;;5112665;28;20032;-81
2023/08/29 06:42:25;;;;;;;8.65;4.60;;;15.70;93.20;;;;;;5112691;28;20091;-81
2023/08/29 06:44:51;;;;;;;8.18;4.90;;;15.80;93.30;;;;;;5113936;28;20016;-81
2023/08/29 06:47:17;;;;;;;7.97;5.00;;;15.80;93.40;;;;;;5116471;28;20028;-81
2023/08/29 06:49:43;;;;;;;8.00;4.20;;;15.90;93.60;;;;;;5099097;28;20053;-81
2023/08/29 06:52:08;;;;;;;8.32;4.60;;;15.90;93.70;;;;;;5099207;28;20074;-81
2023/08/29 06:54:35;;;;;;;7.55;4.75;;;16.00;93.80;;;;;;5099770;28;20023;-82
2023/08/29 06:57:01;;;;;;;9.85;5.22;;;16.10;93.90;;;;;;5087124;28;20015;-81
2023/08/29 06:59:27;;;;;;;8.02;5.18;;;16.10;93.90;;;;;;5103148;28;20020;-81
2023/08/29 07:01:52;;;;;;;8.68;5.03;;;16.20;94.00;;;;;;5119966;28;20024;-82
2023/08/29 07:04:18;;;;;;;10.23;5.28;;;16.30;94.10;;;;;;5102926;28;20024;-81
2023/08/29 07:06:44;;;;;;;8.85;4.60;;;16.30;94.10;;;;;;5086313;28;20028;-81
2023/08/29 07:09:09;;;;;;;14.43;5.10;;;16.40;94.10;;;;;;5103182;28;20024;-81
2023/08/29 07:11:35;;;;;;;8.70;4.93;;;16.50;94.20;;;;;;5102863;28;20053;-80
2023/08/29 07:14:00;;;;;;;7.53;4.55;;;16.50;94.20;;;;;;5103029;28;20053;-81
2023/08/29 07:16:26;;;;;;;10.27;4.78;;;16.50;94.30;;;;;;5102776;28;20028;-81
2023/08/29 07:18:52;;;;;;;8.13;5.72;;;16.60;94.30;;;;;;5119805;28;20031;-81
2023/08/29 07:21:17;;;;;;;9.02;5.88;;;16.60;94.40;;;;;;5119800;28;20045;-81
2023/08/29 07:23:43;;;;;;;8.60;5.18;;;16.70;94.30;;;;;;5102632;28;20550;-81
2023/08/29 07:26:09;;;;;;;11.52;6.07;;;16.80;94.40;;;;;;5119603;28;20023;-81
2023/08/29 07:28:34;;;;;;;11.70;5.70;;;16.80;94.40;;;;;;5119549;28;20054;-81
2023/08/29 07:31:00;;;;;;;8.73;5.40;;;16.80;94.40;;;;;;5119503;28;20035;-81
2023/08/29 07:33:26;;;;;;;8.95;5.05;;;16.90;94.40;;;;;;5102618;28;20024;-81
2023/08/29 07:35:51;;;;;;;7.57;4.32;;;17.00;94.50;;;;;;5119556;28;20445;-81
2023/08/29 07:38:18;;;;;;;7.43;5.07;;;17.00;94.40;;;;;;5119449;28;20023;-82
2023/08/29 07:40:45;;;;;;;10.57;5.43;;;17.10;94.60;;;;;;5102383;28;20035;-81
2023/08/29 07:43:11;;;;;;;10.50;6.00;;;17.10;94.70;;;;;;5137372;28;20019;-82
2023/08/29 07:45:37;;;;;;;9.25;5.30;;;17.10;94.60;;;;;;5118940;28;20036;-81
2023/08/29 07:48:03;;;;;;;9.10;5.10;;;17.20;94.70;;;;;;5102255;28;20035;-81
2023/08/29 07:50:29;;;;;;;9.68;4.97;;;17.30;94.70;;;;;;5119188;28;20024;-82
2023/08/29 07:52:55;;;;;;;7.50;4.80;;;17.30;94.60;;;;;;5102587;28;20067;-81
2023/08/29 07:55:21;;;;;;;7.28;4.75;;;17.30;94.60;;;;;;5102155;28;20020;-81
2023/08/29 07:57:48;;;;;;;13.30;5.57;;;17.40;94.70;;;;;;5085346;28;20028;-81
2023/08/29 08:00:14;;;;;;;8.07;4.97;;;17.40;94.90;;;;;;5136956;28;20051;-81
2023/08/29 08:02:40;;;;;;;6.97;4.57;;;17.40;94.90;;;;;;5136816;28;20027;-82
2023/08/29 08:05:10;;;;;;;7.00;4.65;;;17.50;94.80;;;;;;5101885;28;20055;-81
2023/08/29 08:07:37;;;;;;;6.22;4.20;;;17.60;94.50;;;;;;5118557;28;20024;-81
2023/08/29 08:10:07;;;;;;;5.85;4.53;;;17.50;94.40;;;;;;5136807;28;20030;-81
2023/08/29 08:12:34;;;;;;;6.25;4.20;;;17.60;94.40;;;;;;5118844;28;20034;-81
2023/08/29 08:15:01;;;;;;;7.03;3.85;;;17.60;94.30;;;;;;5136661;28;20106;-81
2023/08/29 08:17:27;;;;;;;6.68;4.13;;;17.60;94.20;;;;;;5101655;28;20024;-80
2023/08/29 08:19:52;;;;;;;5.60;3.78;;;17.70;94.10;;;;;;5118719;28;20035;-81
2023/08/29 08:22:18;;;;;;;6.70;3.90;;;17.70;94.10;;;;;;5136534;28;20029;-81
2023/08/29 08:24:44;;;;;;;5.70;3.60;;;17.80;94.00;;;;;;5118572;28;20023;-81
2023/08/29 08:27:09;;;;;;;5.07;3.97;;;17.90;93.70;;;;;;5136458;28;20024;-81
2023/08/29 08:29:35;;;;;;;7.18;4.60;;;17.90;94.20;;;;;;5118340;28;20035;-81
2023/08/29 08:32:03;;;;;;;6.25;3.08;;;17.90;93.80;;;;;;5136174;28;20035;-82
2023/08/29 08:34:29;;;;;;;7.15;3.50;;;17.90;93.50;;;;;;5118076;28;20095;-82
2023/08/29 08:36:54;;;;;;;5.68;2.90;;;17.90;93.50;;;;;;5101561;28;20035;-81
2023/08/29 08:39:21;;;;;;;5.30;2.88;;;18.00;93.30;;;;;;5084499;28;20102;-81
2023/08/29 08:41:47;;;;;;;4.35;3.00;;;18.10;93.20;;;;;;5101153;28;20031;-82
2023/08/29 08:44:17;;;;;;;3.92;2.53;;;18.10;93.10;;;;;;5136229;28;20032;-81
2023/08/29 08:46:44;;;;;;;4.15;2.50;;;18.10;93.00;;;;;;5135675;28;20040;-81
2023/08/29 08:49:10;;;;;;;6.68;2.60;;;18.10;92.80;;;;;;5118045;28;20019;-81
2023/08/29 08:51:39;;;;;;;5.85;3.20;;;18.10;92.40;;;;;;5136018;28;20085;-81
2023/08/29 08:54:07;;;;;;;4.63;3.17;;;18.00;92.50;;;;;;5117953;28;20046;-81
2023/08/29 08:56:33;;;;;;;4.95;2.88;;;18.00;92.60;;;;;;5118102;28;20100;-81
2023/08/29 08:58:59;;;;;;;4.20;3.00;;;18.10;92.50;;;;;;5135877;28;20023;-81
2023/08/29 09:01:24;;;;;;;4.47;2.80;;;18.20;92.60;;;;;;5117949;28;20080;-82
2023/08/29 09:03:50;;;;;;;7.88;3.03;;;18.20;92.50;;;;;;5084169;28;20091;-81
2023/08/29 09:06:16;;;;;;;7.22;3.47;;;18.20;92.30;;;;;;5100901;28;20031;-81
2023/08/29 09:08:42;;;;;;;5.68;3.25;;;18.30;92.40;;;;;;5117594;28;20026;-82
2023/08/29 09:11:08;;;;;;;4.95;3.22;;;18.30;92.10;;;;;;5117688;28;20499;-82
2023/08/29 09:13:34;;;;;;;4.82;2.80;;;18.30;92.20;;;;;;5117565;28;20054;-81
2023/08/29 09:16:00;;;;;;;5.43;2.85;;;18.30;92.00;;;;;;5117615;28;20028;-81
2023/08/29 09:18:32;;;;;;;4.78;2.70;;;18.30;92.20;;;;;;5134415;28;20034;-81
2023/08/29 09:21:02;;;;;;;6.57;3.30;;;18.40;92.00;;;;;;5100626;28;20051;-81
2023/08/29 09:23:32;;;;;;;4.88;2.83;;;18.30;91.90;;;;;;5118060;28;20024;-81
2023/08/29 09:25:58;;;;;;;5.03;3.05;;;18.30;92.20;;;;;;5117273;28;20015;-81
2023/08/29 09:28:31;;;;;;;4.22;3.15;;;18.50;92.40;;;;;;5117315;28;20022;-81
2023/08/29 09:31:08;;;;;;;3.70;2.80;;;18.60;92.60;;;;;;5135293;28;20103;-82
2023/08/29 09:33:34;;;;;;;7.35;3.53;;;18.60;91.80;;;;;;5100100;28;20118;-81
2023/08/29 09:36:01;;;;;;;5.18;3.20;;;18.60;91.30;;;;;;5100144;28;20443;-81
2023/08/29 09:38:37;;;;;;;3.30;2.60;;;18.60;91.50;;;;;;5117108;28;20028;-81
2023/08/29 09:41:03;;;;;;;4.07;2.90;;;18.70;91.60;;;;;;5099930;28;20032;-81
2023/08/29 09:43:29;;;;;;;2.95;2.30;;;18.80;91.50;;;;;;5100363;28;20043;-82
2023/08/29 09:45:56;;;;;;;4.60;2.58;;;18.90;91.40;;;;;;5113468;28;20129;-81
2023/08/29 09:48:23;;;;;;;1.92;1.38;;;19.00;91.20;;;;;;5130422;28;20051;-81
2023/08/29 09:50:50;;;;;;;3.72;1.27;;;19.10;90.90;;;;;;5113321;28;20024;-81
2023/08/29 09:53:20;;;;;;;2.22;1.38;;;19.20;90.70;;;;;;5114338;28;20035;-82
2023/08/29 09:55:49;;;;;;;2.42;1.70;;;19.20;90.30;;;;;;5113364;28;20028;-81
2023/08/29 09:58:17;;;;;;;2.10;1.50;;;19.30;90.20;;;;;;5113393;28;20020;-82
2023/08/29 10:00:43;;;;;;;2.25;1.45;;;19.30;90.10;;;;;;5114211;28;20030;-82
2023/08/29 10:03:11;;;;;;;3.58;1.73;;;19.30;90.20;;;;;;5114248;28;20059;-81
2023/08/29 10:05:39;;;;;;;2.28;1.80;;;19.40;90.30;;;;;;5113269;28;20020;-81
2023/08/29 10:08:27;;;;;;;2.92;1.60;;;19.40;90.00;;;;;;5114117;28;20020;-81
2023/08/29 10:10:56;;;;;;;2.53;1.70;;;19.40;88.70;;;;;;5113562;28;20047;-81
2023/08/29 10:13:24;;;;;;;3.85;1.63;;;19.20;87.80;;;;;;5096372;28;20025;-81
2023/08/29 10:15:51;;;;;;;4.38;2.13;;;19.10;88.70;;;;;;5096043;28;20122;-81
2023/08/29 10:18:18;;;;;;;3.67;2.20;;;19.20;89.00;;;;;;5114020;28;20024;-82
2023/08/29 10:20:45;;;;;;;4.25;2.15;;;19.30;90.00;;;;;;5113083;28;20048;-82
2023/08/29 10:23:13;;;;;;;3.42;1.73;;;19.40;89.00;;;;;;5096175;28;20020;-81
2023/08/29 10:25:39;;;;;;;1.77;0.90;;;19.40;88.40;;;;;;5112963;28;20027;-81
2023/08/29 10:28:16;;;;;;;2.63;0.95;;;19.30;87.70;;;;;;5095768;28;20028;-81
2023/08/29 10:30:52;;;;;;;0.88;0.60;;;19.30;85.50;;;;;;5112779;28;20020;-81
2023/08/29 10:33:19;;;;;;;1.35;0.77;;;19.20;84.20;;;;;;5112885;28;20046;-82
2023/08/29 10:35:48;;;;;;;5.72;1.70;;;19.20;85.30;;;;;;5112548;28;20092;-81
2023/08/29 10:38:15;;;;;;;6.03;1.60;;;19.20;85.60;;;;;;5112771;28;20020;-81
2023/08/29 10:40:41;;;;;;;3.08;1.70;;;19.20;86.30;;;;;;5112755;28;20024;-81
2023/08/29 10:43:18;;;;;;;4.93;2.53;;;19.30;86.60;;;;;;5095969;28;20155;-81
2023/08/29 10:45:57;;;;;;;3.90;2.60;;;19.30;86.90;;;;;;5114890;28;20026;-81
2023/08/29 10:48:43;;;;;;;5.10;3.13;;;19.30;87.30;;;;;;5134192;28;20040;-82
2023/08/29 10:51:13;;;;;;;5.32;3.28;;;19.40;87.60;;;;;;5115868;28;20027;-81
2023/08/29 10:53:40;;;;;;;7.75;3.80;;;19.40;88.10;;;;;;5133997;28;20023;-81
2023/08/29 10:56:07;;;;;;;4.72;3.03;;;19.40;88.30;;;;;;5134041;28;20049;-81
2023/08/29 10:58:38;;;;;;;6.68;3.55;;;19.50;88.20;;;;;;5116033;28;20019;-82
2023/08/29 11:01:24;;;;;;;4.82;3.17;;;19.50;87.90;;;;;;5115834;28;20031;-81
2023/08/29 11:03:50;;;;;;;5.18;3.42;;;19.40;87.60;;;;;;5115614;28;20019;-81
2023/08/29 11:06:18;;;;;;;4.05;2.97;;;19.40;87.30;;;;;;5099101;28;20019;-81
2023/08/29 11:08:44;;;;;;;5.70;3.53;;;19.40;87.70;;;;;;5116037;28;20459;-81
2023/08/29 11:11:16;;;;;;;5.05;3.25;;;19.40;87.70;;;;;;5098920;28;20031;-81
2023/08/29 11:14:00;;;;;;;4.70;3.17;;;19.40;86.90;;;;;;5115899;28;20032;-82
2023/08/29 11:16:34;;;;;;;5.38;3.10;;;19.40;87.00;;;;;;5115871;28;20039;-81
2023/08/29 11:19:14;;;;;;;3.60;2.30;;;19.50;87.40;;;;;;5133973;28;20034;-82
2023/08/29 11:21:42;;;;;;;4.10;2.78;;;19.60;86.50;;;;;;5115586;28;20027;-81
2023/08/29 11:24:10;;;;;;;3.03;2.50;;;19.60;84.80;;;;;;5115667;28;20012;-82
2023/08/29 11:26:38;;;;;;;4.88;2.90;;;19.60;84.20;;;;;;5115583;28;20043;-81
2023/08/29 11:29:07;;;;;;;5.22;2.50;;;19.60;84.10;;;;;;5133757;28;20069;-82
2023/08/29 11:31:43;;;;;;;4.35;2.28;;;19.60;84.70;;;;;;5082065;28;20041;-81
2023/08/29 11:34:17;;;;;;;4.88;2.50;;;19.70;84.40;;;;;;5098719;28;20028;-81
2023/08/29 11:36:47;;;;;;;3.72;2.50;;;19.80;84.10;;;;;;5115688;28;20057;-81
2023/08/29 11:39:14;;;;;;;4.80;2.83;;;19.80;84.30;;;;;;5116628;28;20034;-81
2023/08/29 11:41:43;;;;;;;4.50;2.97;;;19.70;84.70;;;;;;5100787;28;20083;-81
2023/08/29 11:44:09;;;;;;;5.00;3.20;;;19.80;85.60;;;;;;5119375;28;20055;-81
2023/08/29 11:46:35;;;;;;;5.20;3.40;;;19.80;85.60;;;;;;5102184;28;20078;-81
2023/08/29 11:49:09;;;;;;;4.55;3.25;;;19.90;85.80;;;;;;5102332;28;20027;-82
2023/08/29 11:51:35;;;;;;;6.05;3.45;;;20.00;85.50;;;;;;5119112;28;20042;-81
2023/08/29 11:54:03;;;;;;;6.90;4.00;;;20.10;83.60;;;;;;5102262;28;20095;-80
2023/08/29 11:56:28;;;;;;;4.25;3.17;;;20.10;84.60;;;;;;5102419;28;20024;-80
2023/08/29 11:58:56;;;;;;;4.68;3.60;;;20.10;84.30;;;;;;5119117;28;20095;-81
2023/08/29 12:01:22;;;;;;;6.13;3.58;;;20.00;83.50;;;;;;5136947;28;20020;-81
2023/08/29 12:03:49;;;;;;;4.25;3.13;;;20.10;84.50;;;;;;5118928;28;20024;-81
2023/08/29 12:06:15;;;;;;;4.38;2.65;;;20.30;82.70;;;;;;5118890;28;20471;-81
2023/08/29 12:08:42;;;;;;;5.65;3.33;;;20.40;82.60;;;;;;5118990;28;20020;-81
2023/08/29 12:11:16;;;;;;;4.20;3.08;;;20.60;82.80;;;;;;5118649;28;20046;-81
2023/08/29 12:13:59;;;;;;;4.43;3.03;;;20.70;82.50;;;;;;5136627;28;20087;-81
2023/08/29 12:16:25;;;;;;;4.50;2.67;;;20.70;78.90;;;;;;5136719;28;20046;-81
2023/08/29 12:19:02;;;;;;;6.07;3.30;;;20.70;80.30;;;;;;5118556;28;20032;-81
2023/08/29 12:21:28;;;;;;;4.75;3.00;;;20.90;81.10;;;;;;5103146;28;20067;-82
2023/08/29 12:24:09;;;;;;;4.50;3.10;;;21.00;80.50;;;;;;5118587;28;20024;-82
2023/08/29 12:26:34;;;;;;;4.53;3.00;;;21.10;80.20;;;;;;5136374;28;20020;-81
2023/08/29 12:29:00;;;;;;;3.35;2.58;;;21.10;78.80;;;;;;5118432;28;20030;-81
2023/08/29 12:31:25;;;;;;;6.68;3.70;;;21.00;79.10;;;;;;5084840;28;20027;-81
2023/08/29 12:33:51;;;;;;;6.68;4.18;;;21.10;78.80;;;;;;5118375;28;20054;-82
2023/08/29 12:36:17;;;;;;;6.68;4.35;;;21.10;78.90;;;;;;5118466;28;20020;-81
2023/08/29 12:38:43;;;;;;;3.97;3.00;;;21.10;79.70;;;;;;5118296;28;20036;-81
2023/08/29 12:41:09;;;;;;;4.00;3.20;;;21.20;80.10;;;;;;5101333;28;20027;-81
2023/08/29 12:43:35;;;;;;;4.00;3.25;;;21.30;79.40;;;;;;5101438;28;20016;-81
2023/08/29 12:46:00;;;;;;;5.13;3.00;;;21.30;79.00;;;;;;5101035;28;20034;-80